createdAt,value
2018-04-24T00:00:43.504Z,62.99
2018-04-24T00:03:10.928Z,63.22
2018-04-24T00:05:38.304Z,63.30
2018-04-24T00:08:05.696Z,62.90
2018-04-24T00:10:33.187Z,63.53
2018-04-24T00:13:00.591Z,63.70
2018-04-24T00:15:27.977Z,63.84
2018-04-24T00:17:55.364Z,63.01
2018-04-24T00:20:22.767Z,62.91
2018-04-24T00:22:50.137Z,63.29
2018-04-24T00:25:17.533Z,64.72
2018-04-24T00:27:44.894Z,64.36
2018-04-24T00:30:12.352Z,63.69
2018-04-24T00:32:39.736Z,63.43
2018-04-24T00:35:07.133Z,63.05
2018-04-24T00:37:34.519Z,63.48
2018-04-24T00:40:01.917Z,63.06
2018-04-24T00:42:29.287Z,63.88
2018-04-24T00:44:56.675Z,64.03
2018-04-24T00:47:24.072Z,64.43
2018-04-24T00:49:51.484Z,63.74
2018-04-24T00:52:18.854Z,63.04
2018-04-24T00:54:46.235Z,64.43
2018-04-24T00:57:13.924Z,64.59
2018-04-24T00:59:41.317Z,64.43
2018-04-24T01:02:09.045Z,64.49
2018-04-24T01:04:36.414Z,64.40
2018-04-24T01:07:03.795Z,64.30
2018-04-24T01:09:31.170Z,63.83
2018-04-24T01:11:58.550Z,64.27
2018-04-24T01:14:25.935Z,64.32
2018-04-24T01:16:53.323Z,63.97
2018-04-24T01:19:20.697Z,63.80
2018-04-24T01:21:48.075Z,63.38
2018-04-24T01:24:15.448Z,64.17
2018-04-24T01:26:43.013Z,64.18
2018-04-24T01:29:10.385Z,63.97
2018-04-24T01:31:37.771Z,63.86
2018-04-24T01:34:05.157Z,63.90
2018-04-24T01:36:32.533Z,64.89
2018-04-24T01:38:59.917Z,64.31
2018-04-24T01:41:27.283Z,64.05
2018-04-24T01:43:54.666Z,64.56
2018-04-24T01:46:22.052Z,63.40
2018-04-24T01:48:49.436Z,63.51
2018-04-24T01:51:16.835Z,63.62
2018-04-24T01:53:44.228Z,63.26
2018-04-24T01:56:11.614Z,64.03
2018-04-24T01:58:39.190Z,63.39
2018-04-24T02:01:06.561Z,64.14
2018-04-24T02:03:33.923Z,64.09
2018-04-24T02:06:01.315Z,64.18
2018-04-24T02:08:28.688Z,64.90
2018-04-24T02:10:56.079Z,65.24
2018-04-24T02:13:23.460Z,64.97
2018-04-24T02:15:50.846Z,65.24
2018-04-24T02:18:18.234Z,65.65
2018-04-24T02:20:45.616Z,65.92
2018-04-24T02:23:12.999Z,65.52
2018-04-24T02:25:40.393Z,66.16
2018-04-24T02:28:07.763Z,65.97
2018-04-24T02:30:35.135Z,65.99
2018-04-24T02:33:02.528Z,66.01
2018-04-24T02:35:29.917Z,65.54
2018-04-24T02:37:57.306Z,65.97
2018-04-24T02:40:24.741Z,67.22
2018-04-24T02:42:52.071Z,66.53
2018-04-24T02:45:19.443Z,66.64
2018-04-24T02:47:46.823Z,66.85
2018-04-24T02:50:14.207Z,66.29
2018-04-24T02:52:41.591Z,67.19
2018-04-24T02:55:08.970Z,67.34
2018-04-24T02:57:36.377Z,67.50
2018-04-24T03:00:03.752Z,68.16
2018-04-24T03:02:31.124Z,67.85
2018-04-24T03:04:58.520Z,67.67
2018-04-24T03:07:25.895Z,67.90
2018-04-24T03:09:53.297Z,67.98
2018-04-24T03:12:20.684Z,67.95
2018-04-24T03:14:48.075Z,68.66
2018-04-24T03:17:15.454Z,68.03
2018-04-24T03:19:42.853Z,67.99
2018-04-24T03:22:10.234Z,69.07
2018-04-24T03:24:37.630Z,68.81
2018-04-24T03:27:05.016Z,68.09
2018-04-24T03:29:32.407Z,68.16
2018-04-24T03:31:59.798Z,69.51
2018-04-24T03:34:27.182Z,69.22
2018-04-24T03:36:54.573Z,69.67
2018-04-24T03:39:21.977Z,68.97
2018-04-24T03:41:49.362Z,69.48
2018-04-24T03:44:16.747Z,69.37
2018-04-24T03:46:44.132Z,69.31
2018-04-24T03:49:11.508Z,69.36
2018-04-24T03:51:38.894Z,68.76
2018-04-24T03:54:06.287Z,69.33
2018-04-24T03:56:33.683Z,69.79
2018-04-24T03:59:01.064Z,70.30
2018-04-24T04:01:28.500Z,69.68
2018-04-24T04:03:55.904Z,70.00
2018-04-24T04:06:23.310Z,70.23
2018-04-24T04:08:50.703Z,70.13
2018-04-24T04:11:18.094Z,70.03
2018-04-24T04:13:45.468Z,70.75
2018-04-24T04:16:12.859Z,70.76
2018-04-24T04:18:52.095Z,70.97
2018-04-24T04:21:31.235Z,70.99
2018-04-24T04:24:10.455Z,71.02
2018-04-24T04:26:37.843Z,70.18
2018-04-24T04:29:05.234Z,69.64
2018-04-24T04:31:32.631Z,70.15
2018-04-24T04:34:00.044Z,69.58
2018-04-24T04:36:27.518Z,70.76
2018-04-24T04:38:54.904Z,70.81
2018-04-24T04:41:22.322Z,70.30
2018-04-24T04:43:49.666Z,70.21
2018-04-24T04:46:17.059Z,71.23
2018-04-24T04:48:44.496Z,71.75
2018-04-24T04:51:11.874Z,70.85
2018-04-24T04:53:39.276Z,70.16
2018-04-24T04:56:06.708Z,70.84
2018-04-24T04:58:34.058Z,71.13
2018-04-24T05:01:01.444Z,71.21
2018-04-24T05:03:28.834Z,70.31
2018-04-24T05:05:56.215Z,70.31
2018-04-24T05:08:23.616Z,69.86
2018-04-24T05:10:51.005Z,69.73
2018-04-24T05:13:18.389Z,69.47
2018-04-24T05:15:45.881Z,69.60
2018-04-24T05:18:13.263Z,69.38
2018-04-24T05:20:40.647Z,69.23
2018-04-24T05:23:08.048Z,69.48
2018-04-24T05:25:35.440Z,69.25
2018-04-24T05:28:02.829Z,69.37
2018-04-24T05:30:30.224Z,69.21
2018-04-24T05:32:57.615Z,68.80
2018-04-24T05:35:25.007Z,70.05
2018-04-24T05:37:52.396Z,70.09
2018-04-24T05:40:19.780Z,70.03
2018-04-24T05:42:47.219Z,69.62
2018-04-24T05:45:14.610Z,70.42
2018-04-24T05:47:41.990Z,70.72
2018-04-24T05:50:09.496Z,70.08
2018-04-24T05:52:36.882Z,70.70
2018-04-24T05:55:04.272Z,70.59
2018-04-24T05:57:31.664Z,69.85
2018-04-24T05:59:59.052Z,69.74
2018-04-24T06:02:26.439Z,69.77
2018-04-24T06:04:53.874Z,69.77
2018-04-24T06:07:21.312Z,70.24
2018-04-24T06:09:48.751Z,69.92
2018-04-24T06:12:16.153Z,70.29
2018-04-24T06:14:43.539Z,70.02
2018-04-24T06:17:10.941Z,69.44
2018-04-24T06:19:38.327Z,69.26
2018-04-24T06:22:06.114Z,70.02
2018-04-24T06:24:33.513Z,69.76
2018-04-24T06:27:00.913Z,69.97
2018-04-24T06:29:28.293Z,69.04
2018-04-24T06:31:55.688Z,68.97
2018-04-24T06:34:23.079Z,68.53
2018-04-24T06:36:50.469Z,68.36
2018-04-24T06:39:17.860Z,68.01
2018-04-24T06:41:45.235Z,67.30
2018-04-24T06:44:12.633Z,67.15
2018-04-24T06:46:40.017Z,67.37
2018-04-24T06:49:07.402Z,68.01
2018-04-24T06:51:34.788Z,67.75
2018-04-24T06:54:02.176Z,68.10
2018-04-24T06:56:29.558Z,66.74
2018-04-24T06:58:57.513Z,67.07
2018-04-24T07:01:24.900Z,66.98
2018-04-24T07:03:52.300Z,66.57
2018-04-24T07:06:19.721Z,66.83
2018-04-24T07:08:47.083Z,66.98
2018-04-24T07:11:14.467Z,67.33
2018-04-24T07:13:41.855Z,66.60
2018-04-24T07:16:09.235Z,66.48
2018-04-24T07:18:36.628Z,66.96
2018-04-24T07:21:04.019Z,66.29
2018-04-24T07:23:31.379Z,66.71
2018-04-24T07:25:58.779Z,66.95
2018-04-24T07:28:26.161Z,66.47
2018-04-24T07:30:53.545Z,66.05
2018-04-24T07:33:20.928Z,65.05
2018-04-24T07:35:48.328Z,64.78
2018-04-24T07:38:16.389Z,63.81
2018-04-24T07:40:43.785Z,64.12
2018-04-24T07:43:11.772Z,63.48
2018-04-24T07:45:39.168Z,63.99
2018-04-24T07:48:06.539Z,63.81
2018-04-24T07:50:33.936Z,64.13
2018-04-24T07:53:01.316Z,63.59
2018-04-24T07:55:28.712Z,62.96
2018-04-24T07:57:56.086Z,63.00
2018-04-24T08:00:23.476Z,63.38
2018-04-24T08:02:50.855Z,61.67
2018-04-24T08:05:18.259Z,60.71
2018-04-24T08:07:45.625Z,59.91
2018-04-24T08:10:12.995Z,59.85
2018-04-24T08:12:40.392Z,59.23
2018-04-24T08:15:07.767Z,58.98
2018-04-24T08:17:35.155Z,59.14
2018-04-24T08:20:02.530Z,58.62
2018-04-24T08:22:38.662Z,58.61
2018-04-24T08:25:06.030Z,58.22
2018-04-24T08:27:33.406Z,58.28
2018-04-24T08:30:00.842Z,57.39
2018-04-24T08:32:28.223Z,58.20
2018-04-24T08:34:55.599Z,57.56
2018-04-24T08:37:22.982Z,56.99
2018-04-24T08:39:50.356Z,57.36
2018-04-24T08:42:17.739Z,56.74
2018-04-24T08:44:45.128Z,56.67
2018-04-24T08:47:12.502Z,57.22
2018-04-24T08:49:39.881Z,56.36
2018-04-24T08:52:07.260Z,54.92
2018-04-24T08:54:34.636Z,54.14
2018-04-24T08:57:02.028Z,53.94
2018-04-24T08:59:29.415Z,53.14
2018-04-24T09:01:56.854Z,52.56
2018-04-24T09:04:25.956Z,52.19
2018-04-24T09:06:53.327Z,52.46
2018-04-24T09:09:20.717Z,52.36
2018-04-24T09:11:48.083Z,53.19
2018-04-24T09:14:15.462Z,53.06
2018-04-24T09:16:42.848Z,51.67
2018-04-24T09:19:10.235Z,52.01
2018-04-24T09:21:37.612Z,51.98
2018-04-24T09:24:05.001Z,53.20
2018-04-24T09:26:32.379Z,51.45
2018-04-24T09:28:59.767Z,50.70
2018-04-24T09:31:32.620Z,50.80
2018-04-24T09:34:00.015Z,49.75
2018-04-24T09:36:27.402Z,47.47
2018-04-24T09:38:54.865Z,47.66
2018-04-24T09:41:22.163Z,48.50
2018-04-24T09:43:49.564Z,48.45
2018-04-24T09:46:16.932Z,48.31
2018-04-24T09:48:44.303Z,46.67
2018-04-24T09:51:11.690Z,47.17
2018-04-24T09:53:39.073Z,46.02
2018-04-24T09:56:06.459Z,45.67
2018-04-24T09:58:33.848Z,45.24
2018-04-24T10:01:01.238Z,45.37
2018-04-24T10:03:28.621Z,46.23
2018-04-24T10:05:56.006Z,45.77
2018-04-24T10:08:24.183Z,46.22
2018-04-24T10:10:51.566Z,47.06
2018-04-24T10:13:18.953Z,46.95
2018-04-24T10:15:46.343Z,47.17
2018-04-24T10:18:13.765Z,46.33
2018-04-24T10:20:41.182Z,45.33
2018-04-24T10:23:08.606Z,45.00
2018-04-24T10:25:35.975Z,44.96
2018-04-24T10:28:03.359Z,44.93
2018-04-24T10:30:30.738Z,44.64
2018-04-24T10:32:58.133Z,44.09
2018-04-24T10:35:25.553Z,44.40
2018-04-24T10:37:52.938Z,44.45
2018-04-24T10:40:20.426Z,44.75
2018-04-24T10:42:47.936Z,43.53
2018-04-24T10:45:15.360Z,43.63
2018-04-24T10:47:42.752Z,43.28
2018-04-24T10:50:10.119Z,43.88
2018-04-24T10:52:37.514Z,43.91
2018-04-24T10:55:04.957Z,43.24
2018-04-24T10:57:32.375Z,43.35
2018-04-24T10:59:59.755Z,42.24
2018-04-24T11:02:27.464Z,42.58
2018-04-24T11:04:54.983Z,41.60
2018-04-24T11:07:22.381Z,41.77
2018-04-24T11:09:49.765Z,41.45
2018-04-24T11:12:17.152Z,41.57
2018-04-24T11:14:44.536Z,43.02
2018-04-24T11:17:11.907Z,41.76
2018-04-24T11:19:39.295Z,41.65
2018-04-24T11:22:06.679Z,41.72
2018-04-24T11:24:34.081Z,41.51
2018-04-24T11:27:01.447Z,42.27
2018-04-24T11:29:28.836Z,42.58
2018-04-24T11:31:56.208Z,42.32
2018-04-24T11:34:23.633Z,43.14
2018-04-24T11:36:50.992Z,43.01
2018-04-24T11:39:18.393Z,42.27
2018-04-24T11:41:45.767Z,41.83
2018-04-24T11:44:13.180Z,41.97
2018-04-24T11:46:40.551Z,41.31
2018-04-24T11:49:07.927Z,40.89
2018-04-24T11:51:35.340Z,40.65
2018-04-24T11:54:02.724Z,40.52
2018-04-24T11:56:30.116Z,39.82
2018-04-24T11:58:57.495Z,40.03
2018-04-24T12:01:24.879Z,39.65
2018-04-24T12:03:52.255Z,39.77
2018-04-24T12:06:19.870Z,38.03
2018-04-24T12:08:47.267Z,38.90
2018-04-24T12:11:14.648Z,38.63
2018-04-24T12:13:42.028Z,38.52
2018-04-24T12:16:09.415Z,36.78
2018-04-24T12:18:36.796Z,36.11
2018-04-24T12:21:04.192Z,35.88
2018-04-24T12:23:31.568Z,35.47
2018-04-24T12:25:58.970Z,35.44
2018-04-24T12:28:26.365Z,34.53
2018-04-24T12:30:53.923Z,34.47
2018-04-24T12:33:21.347Z,33.66
2018-04-24T12:35:48.906Z,34.75
2018-04-24T12:38:17.067Z,34.15
2018-04-24T12:40:44.439Z,35.48
2018-04-24T12:43:11.832Z,34.77
2018-04-24T12:45:39.204Z,34.68
2018-04-24T12:48:06.583Z,33.04
2018-04-24T12:50:34.007Z,33.72
2018-04-24T12:53:01.474Z,32.66
2018-04-24T12:55:28.829Z,30.65
2018-04-24T12:57:56.337Z,29.48
2018-04-24T13:00:23.614Z,28.56
2018-04-24T13:02:51.042Z,28.01
2018-04-24T13:05:18.477Z,28.73
2018-04-24T13:07:45.876Z,27.67
2018-04-24T13:10:13.300Z,25.98
2018-04-24T13:12:40.674Z,25.92
2018-04-24T13:15:08.061Z,25.81
2018-04-24T13:17:35.442Z,26.21
2018-04-24T13:20:02.835Z,27.73
2018-04-24T13:22:30.207Z,26.61
2018-04-24T13:24:57.601Z,26.69
2018-04-24T13:27:24.983Z,26.75
2018-04-24T13:29:52.377Z,26.34
2018-04-24T13:32:19.750Z,26.82
2018-04-24T13:34:47.149Z,26.01
2018-04-24T13:37:14.621Z,26.04
2018-04-24T13:39:41.923Z,24.04
2018-04-24T13:42:09.400Z,25.65
2018-04-24T13:44:36.933Z,23.54
2018-04-24T13:47:04.323Z,22.92
2018-04-24T13:49:31.720Z,21.01
2018-04-24T13:51:59.099Z,22.48
2018-04-24T13:54:26.502Z,22.25
2018-04-24T13:56:53.887Z,21.43
2018-04-24T13:59:21.271Z,21.86
2018-04-24T14:01:48.840Z,22.51
2018-04-24T14:04:16.204Z,23.43
2018-04-24T14:06:43.611Z,23.22
2018-04-24T14:09:10.998Z,22.22
2018-04-24T14:11:38.455Z,21.26
2018-04-24T14:14:05.872Z,21.56
2018-04-24T14:16:33.249Z,20.97
2018-04-24T14:19:00.640Z,21.50
2018-04-24T14:21:29.741Z,21.32
2018-04-24T14:23:57.110Z,17.88
2018-04-24T14:26:24.508Z,20.30
2018-04-24T14:28:51.897Z,19.46
2018-04-24T14:31:19.284Z,20.32
2018-04-24T14:33:46.696Z,19.38
2018-04-24T14:36:14.205Z,20.15
2018-04-24T14:38:41.660Z,20.86
2018-04-24T14:41:08.951Z,19.94
2018-04-24T14:43:36.433Z,20.52
2018-04-24T14:46:03.983Z,20.18
2018-04-24T14:48:31.468Z,21.27
2018-04-24T14:50:58.883Z,20.83
2018-04-24T14:53:26.264Z,21.92
2018-04-24T14:55:53.643Z,22.27
2018-04-24T14:58:21.083Z,21.24
2018-04-24T15:00:48.496Z,21.65
2018-04-24T15:03:16.050Z,21.64
2018-04-24T15:05:43.479Z,21.34
2018-04-24T15:08:10.872Z,21.15
2018-04-24T15:10:38.242Z,21.22
2018-04-24T15:13:05.654Z,21.14
2018-04-24T15:15:33.150Z,21.33
2018-04-24T15:18:00.537Z,21.21
2018-04-24T15:20:28.322Z,21.36
2018-04-24T15:22:55.683Z,21.54
2018-04-24T15:25:23.064Z,20.33
2018-04-24T15:27:50.441Z,21.78
2018-04-24T15:30:17.830Z,21.97
2018-04-24T15:32:45.208Z,21.27
2018-04-24T15:35:12.593Z,22.81
2018-04-24T15:37:40.119Z,23.22
2018-04-24T15:40:07.500Z,23.55
2018-04-24T15:42:34.891Z,23.85
2018-04-24T15:45:02.278Z,24.29
2018-04-24T15:47:29.644Z,24.44
2018-04-24T15:49:57.031Z,23.73
2018-04-24T15:52:24.423Z,23.31
2018-04-24T15:54:51.871Z,24.56
2018-04-24T15:57:19.199Z,24.31
2018-04-24T15:59:46.595Z,25.72
2018-04-24T16:02:13.971Z,25.49
2018-04-24T16:04:41.354Z,25.45
2018-04-24T16:07:08.747Z,25.65
2018-04-24T16:09:36.164Z,27.06
2018-04-24T16:12:03.547Z,27.83
2018-04-24T16:14:30.932Z,27.85
2018-04-24T16:16:58.330Z,27.66
2018-04-24T16:19:25.812Z,28.56
2018-04-24T16:21:53.090Z,28.47
2018-04-24T16:24:20.497Z,28.25
2018-04-24T16:26:47.930Z,28.30
2018-04-24T16:29:15.330Z,28.08
2018-04-24T16:31:42.729Z,28.12
2018-04-24T16:34:10.124Z,28.00
2018-04-24T16:36:37.507Z,27.92
2018-04-24T16:39:05.577Z,28.25
2018-04-24T16:41:32.950Z,28.49
2018-04-24T16:44:00.389Z,29.13
2018-04-24T16:46:27.819Z,29.36
2018-04-24T16:48:55.155Z,29.45
2018-04-24T16:51:22.549Z,29.77
2018-04-24T16:53:49.943Z,29.97
2018-04-24T16:56:17.422Z,30.19
2018-04-24T16:58:44.718Z,30.23
2018-04-24T17:01:12.087Z,30.35
2018-04-24T17:03:39.473Z,31.35
2018-04-24T17:06:06.910Z,31.64
2018-04-24T17:08:34.225Z,31.21
2018-04-24T17:11:01.604Z,31.21
2018-04-24T17:13:29.006Z,31.11
2018-04-24T17:15:56.379Z,31.21
2018-04-24T17:18:23.752Z,31.52
2018-04-24T17:20:51.142Z,31.84
2018-04-24T17:23:18.517Z,31.45
2018-04-24T17:25:45.902Z,32.18
2018-04-24T17:28:13.310Z,32.41
2018-04-24T17:30:40.727Z,32.12
2018-04-24T17:33:08.115Z,32.41
2018-04-24T17:35:35.504Z,32.59
2018-04-24T17:38:03.709Z,33.07
2018-04-24T17:40:31.105Z,33.42
2018-04-24T17:42:58.487Z,33.61
2018-04-24T17:45:26.152Z,33.84
2018-04-24T17:47:53.561Z,33.90
2018-04-24T17:50:20.940Z,33.60
2018-04-24T17:52:48.320Z,34.14
2018-04-24T17:55:15.733Z,34.53
2018-04-24T17:57:43.130Z,34.34
2018-04-24T18:00:10.517Z,34.60
2018-04-24T18:02:37.900Z,34.78
2018-04-24T18:05:05.289Z,34.76
2018-04-24T18:07:32.667Z,35.13
2018-04-24T18:10:00.044Z,35.10
2018-04-24T18:12:28.148Z,34.87
2018-04-24T18:14:55.519Z,35.33
2018-04-24T18:17:22.913Z,35.27
2018-04-24T18:19:50.287Z,35.61
2018-04-24T18:22:17.680Z,35.30
2018-04-24T18:24:45.071Z,35.32
2018-04-24T18:27:12.478Z,35.60
2018-04-24T18:29:39.914Z,35.69
2018-04-24T18:32:07.462Z,35.55
2018-04-24T18:34:34.865Z,36.02
2018-04-24T18:37:02.213Z,36.15
2018-04-24T18:39:29.605Z,36.36
2018-04-24T18:41:56.964Z,36.03
2018-04-24T18:44:25.244Z,36.11
2018-04-24T18:46:52.596Z,36.24
2018-04-24T18:49:19.979Z,36.85
2018-04-24T18:51:47.352Z,37.05
2018-04-24T18:54:14.735Z,36.95
2018-04-24T18:56:42.121Z,36.97
2018-04-24T18:59:09.502Z,36.97
2018-04-24T19:01:36.884Z,37.00
2018-04-24T19:04:04.269Z,37.26
2018-04-24T19:06:31.636Z,37.27
2018-04-24T19:08:59.012Z,37.65
2018-04-24T19:11:26.389Z,37.56
2018-04-24T19:13:53.785Z,37.79
2018-04-24T19:16:21.151Z,37.92
2018-04-24T19:18:54.048Z,38.08
2018-04-24T19:21:21.427Z,38.16
2018-04-24T19:23:48.809Z,38.11
2018-04-24T19:26:16.456Z,37.97
2018-04-24T19:28:43.835Z,38.35
2018-04-24T19:34:11.468Z,39.21
2018-04-24T19:36:38.867Z,39.50
2018-04-24T19:39:12.928Z,39.20
2018-04-24T19:41:45.873Z,39.96
2018-04-24T19:44:13.251Z,40.35
2018-04-24T19:46:40.629Z,40.65
2018-04-24T19:49:13.615Z,40.44
2018-04-24T19:51:40.915Z,41.07
2018-04-24T19:54:08.294Z,40.60
2018-04-24T19:56:35.667Z,41.45
2018-04-24T19:59:03.040Z,41.32
2018-04-24T20:01:30.428Z,41.48
2018-04-24T20:03:57.809Z,41.90
2018-04-24T20:06:25.172Z,42.10
2018-04-24T20:08:52.546Z,42.30
2018-04-24T20:11:19.935Z,42.38
2018-04-24T20:13:47.338Z,42.14
2018-04-24T20:16:14.704Z,42.38
2018-04-24T20:18:42.087Z,42.60
2018-04-24T20:21:09.462Z,42.91
2018-04-24T20:23:36.847Z,43.00
2018-04-24T20:26:04.214Z,43.03
2018-04-24T20:28:31.605Z,43.15
2018-04-24T20:30:58.988Z,43.39
2018-04-24T20:33:26.363Z,43.69
2018-04-24T20:35:53.743Z,43.67
2018-04-24T20:38:21.116Z,43.85
2018-04-24T20:40:48.498Z,44.07
2018-04-24T20:43:15.876Z,43.97
2018-04-24T20:45:43.268Z,43.79
2018-04-24T20:48:10.636Z,43.52
2018-04-24T20:50:38.032Z,43.89
2018-04-24T20:53:05.445Z,44.04
2018-04-24T20:55:32.780Z,43.70
2018-04-24T20:58:00.171Z,44.28
2018-04-24T21:00:27.554Z,44.24
2018-04-24T21:02:54.924Z,45.11
2018-04-24T21:05:22.308Z,44.34
2018-04-24T21:07:49.687Z,45.00
2018-04-24T21:10:17.084Z,45.16
2018-04-24T21:12:44.462Z,44.85
2018-04-24T21:15:11.844Z,44.80
2018-04-24T21:17:39.226Z,45.09
2018-04-24T21:20:06.608Z,45.68
2018-04-24T21:22:34.002Z,45.48
2018-04-24T21:25:01.408Z,45.32
2018-04-24T21:27:28.949Z,45.72
2018-04-24T21:29:56.360Z,45.77
2018-04-24T21:32:23.732Z,45.68
2018-04-24T21:34:51.115Z,45.55
2018-04-24T21:37:18.506Z,46.06
2018-04-24T21:39:45.891Z,46.29
2018-04-24T21:42:13.288Z,46.65
2018-04-24T21:44:41.059Z,46.27
2018-04-24T21:47:08.444Z,46.87
2018-04-24T21:49:35.820Z,46.53
2018-04-24T21:52:03.214Z,46.84
2018-04-24T21:54:30.619Z,46.44
2018-04-24T21:56:57.999Z,47.34
2018-04-24T21:59:25.374Z,46.94
2018-04-24T22:01:52.767Z,47.20
2018-04-24T22:04:20.146Z,47.50
2018-04-24T22:06:47.526Z,47.51
2018-04-24T22:09:14.922Z,47.61
2018-04-24T22:11:42.538Z,47.37
2018-04-24T22:14:10.212Z,47.24
2018-04-24T22:16:37.802Z,48.13
2018-04-24T22:19:06.031Z,48.13
2018-04-24T22:21:33.411Z,47.90
2018-04-24T22:24:00.799Z,47.89
2018-04-24T22:26:28.185Z,48.24
2018-04-24T22:28:55.577Z,47.91
2018-04-24T22:31:22.959Z,47.92
2018-04-24T22:33:50.340Z,48.13
2018-04-24T22:36:17.899Z,48.85
2018-04-24T22:38:45.298Z,48.47
2018-04-24T22:41:12.679Z,48.83
2018-04-24T22:43:40.065Z,48.81
2018-04-24T22:46:07.441Z,48.65
2018-04-24T22:48:34.820Z,49.13
2018-04-24T22:51:02.204Z,49.06
2018-04-24T22:53:29.589Z,49.05
2018-04-24T22:55:56.968Z,49.69
2018-04-24T22:58:24.369Z,49.33
2018-04-24T23:00:51.755Z,49.28
2018-04-24T23:03:19.124Z,49.88
2018-04-24T23:05:46.527Z,49.75
2018-04-24T23:08:14.029Z,49.55
2018-04-24T23:10:53.176Z,49.58
2018-04-24T23:13:32.265Z,50.01
2018-04-24T23:16:11.515Z,50.28
2018-04-24T23:18:50.548Z,50.23
2018-04-24T23:21:17.396Z,50.27
2018-04-24T23:23:44.776Z,50.28
2018-04-24T23:26:12.164Z,50.72
2018-04-24T23:28:39.552Z,50.34
2018-04-24T23:31:06.937Z,50.89
2018-04-24T23:33:34.305Z,50.53
2018-04-24T23:36:01.712Z,51.13
2018-04-24T23:38:29.172Z,51.11
2018-04-24T23:40:56.476Z,50.87
2018-04-24T23:43:23.852Z,51.14
2018-04-24T23:45:51.242Z,51.50
2018-04-24T23:48:18.639Z,51.41
2018-04-24T23:50:46.016Z,51.86
2018-04-24T23:53:13.412Z,52.25
2018-04-24T23:55:40.799Z,52.54
2018-04-24T23:58:08.319Z,52.47
